sensor_id;sensor_type;location;lat;lon;timestamp;P1;durP1;ratioP1;P2;durP2;ratioP2
45806;SDS011;31507;51.494;7.518;2023-04-21T00:00:54;69.95;;;39.70;;
45806;SDS011;31507;51.494;7.518;2023-04-21T00:03:20;81.53;;;42.78;;
45806;SDS011;31507;51.494;7.518;2023-04-21T00:05:48;78.93;;;41.90;;
45806;SDS011;31507;51.494;7.518;2023-04-21T00:08:14;88.65;;;42.58;;
45806;SDS011;31507;51.494;7.518;2023-04-21T00:10:41;77.30;;;42.97;;
45806;SDS011;31507;51.494;7.518;2023-04-21T00:13:07;84.97;;;45.30;;
45806;SDS011;31507;51.494;7.518;2023-04-21T00:15:33;78.80;;;43.42;;
45806;SDS011;31507;51.494;7.518;2023-04-21T00:17:58;81.38;;;42.53;;
45806;SDS011;31507;51.494;7.518;2023-04-21T00:20:24;78.07;;;43.13;;
45806;SDS011;31507;51.494;7.518;2023-04-21T00:22:51;83.40;;;43.13;;
45806;SDS011;31507;51.494;7.518;2023-04-21T00:25:17;84.82;;;44.80;;
45806;SDS011;31507;51.494;7.518;2023-04-21T00:27:43;95.97;;;44.67;;
45806;SDS011;31507;51.494;7.518;2023-04-21T00:30:09;90.60;;;45.97;;
45806;SDS011;31507;51.494;7.518;2023-04-21T00:32:35;95.28;;;45.38;;
45806;SDS011;31507;51.494;7.518;2023-04-21T00:35:00;89.45;;;45.55;;
45806;SDS011;31507;51.494;7.518;2023-04-21T00:37:26;93.03;;;44.05;;
45806;SDS011;31507;51.494;7.518;2023-04-21T00:39:52;88.78;;;45.17;;
45806;SDS011;31507;51.494;7.518;2023-04-21T00:42:18;96.75;;;46.45;;
45806;SDS011;31507;51.494;7.518;2023-04-21T00:44:43;103.18;;;48.80;;
45806;SDS011;31507;51.494;7.518;2023-04-21T00:47:09;94.07;;;47.80;;
45806;SDS011;31507;51.494;7.518;2023-04-21T00:49:35;107.45;;;48.38;;
45806;SDS011;31507;51.494;7.518;2023-04-21T00:52:02;120.15;;;50.95;;
45806;SDS011;31507;51.494;7.518;2023-04-21T00:54:29;111.82;;;49.45;;
45806;SDS011;31507;51.494;7.518;2023-04-21T00:56:55;112.15;;;49.20;;
45806;SDS011;31507;51.494;7.518;2023-04-21T00:59:24;114.20;;;50.85;;
45806;SDS011;31507;51.494;7.518;2023-04-21T01:01:49;106.30;;;48.88;;
45806;SDS011;31507;51.494;7.518;2023-04-21T01:04:16;120.45;;;49.83;;
45806;SDS011;31507;51.494;7.518;2023-04-21T01:06:42;106.88;;;50.42;;
45806;SDS011;31507;51.494;7.518;2023-04-21T01:09:08;112.45;;;49.22;;
45806;SDS011;31507;51.494;7.518;2023-04-21T01:11:33;120.80;;;51.22;;
45806;SDS011;31507;51.494;7.518;2023-04-21T01:13:59;101.22;;;49.10;;
45806;SDS011;31507;51.494;7.518;2023-04-21T01:16:25;105.90;;;48.28;;
45806;SDS011;31507;51.494;7.518;2023-04-21T01:18:51;100.22;;;48.67;;
45806;SDS011;31507;51.494;7.518;2023-04-21T01:21:17;111.30;;;51.45;;
45806;SDS011;31507;51.494;7.518;2023-04-21T01:23:44;109.22;;;50.78;;
45806;SDS011;31507;51.494;7.518;2023-04-21T01:26:11;112.53;;;50.10;;
45806;SDS011;31507;51.494;7.518;2023-04-21T01:28:36;112.03;;;50.63;;
45806;SDS011;31507;51.494;7.518;2023-04-21T01:31:02;117.30;;;51.53;;
45806;SDS011;31507;51.494;7.518;2023-04-21T01:33:29;116.72;;;51.60;;
45806;SDS011;31507;51.494;7.518;2023-04-21T01:35:54;127.40;;;52.83;;
45806;SDS011;31507;51.494;7.518;2023-04-21T01:38:20;119.53;;;52.92;;
45806;SDS011;31507;51.494;7.518;2023-04-21T01:40:47;139.52;;;53.75;;
45806;SDS011;31507;51.494;7.518;2023-04-21T01:43:15;168.40;;;56.90;;
45806;SDS011;31507;51.494;7.518;2023-04-21T01:45:42;148.70;;;55.05;;
45806;SDS011;31507;51.494;7.518;2023-04-21T01:48:07;150.52;;;54.58;;
45806;SDS011;31507;51.494;7.518;2023-04-21T01:50:33;177.93;;;56.78;;
45806;SDS011;31507;51.494;7.518;2023-04-21T01:53:01;136.23;;;56.55;;
45806;SDS011;31507;51.494;7.518;2023-04-21T01:55:27;145.90;;;59.13;;
45806;SDS011;31507;51.494;7.518;2023-04-21T01:57:53;205.25;;;60.15;;
45806;SDS011;31507;51.494;7.518;2023-04-21T02:00:21;165.30;;;61.47;;
45806;SDS011;31507;51.494;7.518;2023-04-21T02:02:47;146.88;;;59.15;;
45806;SDS011;31507;51.494;7.518;2023-04-21T02:05:13;149.80;;;60.33;;
45806;SDS011;31507;51.494;7.518;2023-04-21T02:07:38;185.52;;;60.90;;
45806;SDS011;31507;51.494;7.518;2023-04-21T02:10:04;161.50;;;60.65;;
45806;SDS011;31507;51.494;7.518;2023-04-21T02:12:30;182.90;;;65.25;;
45806;SDS011;31507;51.494;7.518;2023-04-21T02:14:55;162.68;;;61.40;;
45806;SDS011;31507;51.494;7.518;2023-04-21T02:17:21;146.35;;;61.78;;
45806;SDS011;31507;51.494;7.518;2023-04-21T02:19:47;148.00;;;62.53;;
45806;SDS011;31507;51.494;7.518;2023-04-21T02:22:12;168.23;;;61.95;;
45806;SDS011;31507;51.494;7.518;2023-04-21T02:24:38;155.65;;;60.47;;
45806;SDS011;31507;51.494;7.518;2023-04-21T02:27:04;162.02;;;61.75;;
45806;SDS011;31507;51.494;7.518;2023-04-21T02:29:29;145.60;;;60.00;;
45806;SDS011;31507;51.494;7.518;2023-04-21T02:31:55;148.20;;;60.35;;
45806;SDS011;31507;51.494;7.518;2023-04-21T02:34:20;167.00;;;60.17;;
45806;SDS011;31507;51.494;7.518;2023-04-21T02:36:46;157.68;;;61.97;;
45806;SDS011;31507;51.494;7.518;2023-04-21T02:39:12;169.30;;;61.95;;
45806;SDS011;31507;51.494;7.518;2023-04-21T02:41:38;162.85;;;60.55;;
45806;SDS011;31507;51.494;7.518;2023-04-21T02:44:03;170.70;;;62.22;;
45806;SDS011;31507;51.494;7.518;2023-04-21T02:46:29;156.20;;;61.15;;
45806;SDS011;31507;51.494;7.518;2023-04-21T02:48:55;147.20;;;61.88;;
45806;SDS011;31507;51.494;7.518;2023-04-21T02:51:21;146.85;;;61.47;;
45806;SDS011;31507;51.494;7.518;2023-04-21T02:53:46;182.93;;;63.80;;
45806;SDS011;31507;51.494;7.518;2023-04-21T02:56:12;154.23;;;61.85;;
45806;SDS011;31507;51.494;7.518;2023-04-21T02:58:38;160.10;;;63.35;;
45806;SDS011;31507;51.494;7.518;2023-04-21T03:01:04;158.18;;;65.20;;
45806;SDS011;31507;51.494;7.518;2023-04-21T03:03:30;159.82;;;64.32;;
45806;SDS011;31507;51.494;7.518;2023-04-21T03:05:57;158.05;;;62.60;;
45806;SDS011;31507;51.494;7.518;2023-04-21T03:08:27;176.13;;;63.92;;
45806;SDS011;31507;51.494;7.518;2023-04-21T03:10:53;181.43;;;65.57;;
45806;SDS011;31507;51.494;7.518;2023-04-21T03:13:18;273.15;;;71.50;;
45806;SDS011;31507;51.494;7.518;2023-04-21T03:15:44;182.00;;;65.18;;
45806;SDS011;31507;51.494;7.518;2023-04-21T03:18:10;205.07;;;65.20;;
45806;SDS011;31507;51.494;7.518;2023-04-21T03:20:36;200.50;;;65.15;;
45806;SDS011;31507;51.494;7.518;2023-04-21T03:23:02;188.80;;;66.15;;
45806;SDS011;31507;51.494;7.518;2023-04-21T03:25:27;199.07;;;67.88;;
45806;SDS011;31507;51.494;7.518;2023-04-21T03:27:53;232.48;;;67.82;;
45806;SDS011;31507;51.494;7.518;2023-04-21T03:30:19;210.73;;;68.88;;
45806;SDS011;31507;51.494;7.518;2023-04-21T03:32:46;245.18;;;69.72;;
45806;SDS011;31507;51.494;7.518;2023-04-21T03:35:11;245.93;;;69.20;;
45806;SDS011;31507;51.494;7.518;2023-04-21T03:37:37;224.10;;;68.07;;
45806;SDS011;31507;51.494;7.518;2023-04-21T03:40:03;240.25;;;68.90;;
45806;SDS011;31507;51.494;7.518;2023-04-21T03:42:32;225.82;;;70.45;;
45806;SDS011;31507;51.494;7.518;2023-04-21T03:45:05;264.63;;;73.88;;
45806;SDS011;31507;51.494;7.518;2023-04-21T03:47:32;247.20;;;70.47;;
45806;SDS011;31507;51.494;7.518;2023-04-21T03:49:58;272.77;;;72.45;;
45806;SDS011;31507;51.494;7.518;2023-04-21T03:52:24;330.38;;;74.82;;
45806;SDS011;31507;51.494;7.518;2023-04-21T03:54:50;262.70;;;72.68;;
45806;SDS011;31507;51.494;7.518;2023-04-21T03:57:16;282.15;;;75.47;;
45806;SDS011;31507;51.494;7.518;2023-04-21T03:59:42;212.52;;;73.95;;
45806;SDS011;31507;51.494;7.518;2023-04-21T04:02:08;306.48;;;79.55;;
45806;SDS011;31507;51.494;7.518;2023-04-21T04:04:33;252.05;;;78.95;;
45806;SDS011;31507;51.494;7.518;2023-04-21T04:07:00;293.08;;;79.32;;
45806;SDS011;31507;51.494;7.518;2023-04-21T04:09:26;273.98;;;78.97;;
45806;SDS011;31507;51.494;7.518;2023-04-21T04:11:51;245.95;;;77.32;;
45806;SDS011;31507;51.494;7.518;2023-04-21T04:14:17;259.67;;;80.20;;
45806;SDS011;31507;51.494;7.518;2023-04-21T04:16:42;248.98;;;80.28;;
45806;SDS011;31507;51.494;7.518;2023-04-21T04:19:08;279.15;;;81.25;;
45806;SDS011;31507;51.494;7.518;2023-04-21T04:21:34;364.13;;;87.20;;
45806;SDS011;31507;51.494;7.518;2023-04-21T04:24:00;275.05;;;81.10;;
45806;SDS011;31507;51.494;7.518;2023-04-21T04:26:29;295.10;;;83.57;;
45806;SDS011;31507;51.494;7.518;2023-04-21T04:28:58;283.42;;;82.45;;
45806;SDS011;31507;51.494;7.518;2023-04-21T04:31:26;247.20;;;78.75;;
45806;SDS011;31507;51.494;7.518;2023-04-21T04:33:55;257.73;;;81.57;;
45806;SDS011;31507;51.494;7.518;2023-04-21T04:36:21;268.55;;;82.13;;
45806;SDS011;31507;51.494;7.518;2023-04-21T04:38:48;272.42;;;80.93;;
45806;SDS011;31507;51.494;7.518;2023-04-21T04:41:13;267.63;;;78.75;;
45806;SDS011;31507;51.494;7.518;2023-04-21T04:43:40;218.10;;;78.85;;
45806;SDS011;31507;51.494;7.518;2023-04-21T04:46:07;262.17;;;85.75;;
45806;SDS011;31507;51.494;7.518;2023-04-21T04:48:33;250.50;;;82.50;;
45806;SDS011;31507;51.494;7.518;2023-04-21T04:50:59;401.88;;;88.13;;
45806;SDS011;31507;51.494;7.518;2023-04-21T04:53:28;282.70;;;86.50;;
45806;SDS011;31507;51.494;7.518;2023-04-21T04:55:54;264.20;;;82.72;;
45806;SDS011;31507;51.494;7.518;2023-04-21T04:58:21;240.73;;;81.95;;
45806;SDS011;31507;51.494;7.518;2023-04-21T05:00:47;274.80;;;83.88;;
45806;SDS011;31507;51.494;7.518;2023-04-21T05:03:12;257.48;;;85.53;;
45806;SDS011;31507;51.494;7.518;2023-04-21T05:05:38;235.60;;;82.13;;
45806;SDS011;31507;51.494;7.518;2023-04-21T05:08:03;248.95;;;81.80;;
45806;SDS011;31507;51.494;7.518;2023-04-21T05:10:29;250.40;;;82.90;;
45806;SDS011;31507;51.494;7.518;2023-04-21T05:12:55;252.88;;;83.22;;
45806;SDS011;31507;51.494;7.518;2023-04-21T05:15:20;284.23;;;86.30;;
45806;SDS011;31507;51.494;7.518;2023-04-21T05:17:47;250.55;;;82.50;;
45806;SDS011;31507;51.494;7.518;2023-04-21T05:20:12;279.40;;;86.57;;
45806;SDS011;31507;51.494;7.518;2023-04-21T05:22:38;251.15;;;84.68;;
45806;SDS011;31507;51.494;7.518;2023-04-21T05:25:05;239.60;;;83.57;;
45806;SDS011;31507;51.494;7.518;2023-04-21T05:27:31;231.57;;;85.07;;
45806;SDS011;31507;51.494;7.518;2023-04-21T05:29:58;221.07;;;81.25;;
45806;SDS011;31507;51.494;7.518;2023-04-21T05:32:24;272.88;;;83.68;;
45806;SDS011;31507;51.494;7.518;2023-04-21T05:34:49;264.02;;;85.85;;
45806;SDS011;31507;51.494;7.518;2023-04-21T05:37:15;253.25;;;82.03;;
45806;SDS011;31507;51.494;7.518;2023-04-21T05:39:41;250.13;;;83.68;;
45806;SDS011;31507;51.494;7.518;2023-04-21T05:42:08;230.48;;;82.50;;
45806;SDS011;31507;51.494;7.518;2023-04-21T05:44:37;273.92;;;83.60;;
45806;SDS011;31507;51.494;7.518;2023-04-21T05:47:03;263.00;;;82.97;;
45806;SDS011;31507;51.494;7.518;2023-04-21T05:49:30;271.88;;;83.38;;
45806;SDS011;31507;51.494;7.518;2023-04-21T05:51:56;239.30;;;81.72;;
45806;SDS011;31507;51.494;7.518;2023-04-21T05:54:21;265.20;;;84.60;;
45806;SDS011;31507;51.494;7.518;2023-04-21T05:56:47;235.45;;;82.07;;
45806;SDS011;31507;51.494;7.518;2023-04-21T05:59:12;232.93;;;82.35;;
45806;SDS011;31507;51.494;7.518;2023-04-21T06:01:38;214.05;;;82.25;;
45806;SDS011;31507;51.494;7.518;2023-04-21T06:04:04;225.85;;;82.22;;
45806;SDS011;31507;51.494;7.518;2023-04-21T06:06:30;213.65;;;81.43;;
45806;SDS011;31507;51.494;7.518;2023-04-21T06:08:55;202.57;;;81.93;;
45806;SDS011;31507;51.494;7.518;2023-04-21T06:11:21;195.30;;;79.45;;
45806;SDS011;31507;51.494;7.518;2023-04-21T06:13:48;198.48;;;82.00;;
45806;SDS011;31507;51.494;7.518;2023-04-21T06:16:13;210.57;;;79.15;;
45806;SDS011;31507;51.494;7.518;2023-04-21T06:18:39;203.73;;;77.72;;
45806;SDS011;31507;51.494;7.518;2023-04-21T06:21:05;175.45;;;74.38;;
45806;SDS011;31507;51.494;7.518;2023-04-21T06:23:30;172.82;;;73.20;;
45806;SDS011;31507;51.494;7.518;2023-04-21T06:26:02;187.63;;;75.63;;
45806;SDS011;31507;51.494;7.518;2023-04-21T06:28:31;156.13;;;70.53;;
45806;SDS011;31507;51.494;7.518;2023-04-21T06:31:05;150.25;;;70.72;;
45806;SDS011;31507;51.494;7.518;2023-04-21T06:33:31;144.63;;;67.63;;
45806;SDS011;31507;51.494;7.518;2023-04-21T06:35:57;130.32;;;64.25;;
45806;SDS011;31507;51.494;7.518;2023-04-21T06:38:23;113.43;;;58.95;;
45806;SDS011;31507;51.494;7.518;2023-04-21T06:40:49;104.88;;;57.97;;
45806;SDS011;31507;51.494;7.518;2023-04-21T06:43:15;109.72;;;57.95;;
45806;SDS011;31507;51.494;7.518;2023-04-21T06:45:40;112.47;;;58.47;;
45806;SDS011;31507;51.494;7.518;2023-04-21T06:48:06;102.82;;;56.50;;
45806;SDS011;31507;51.494;7.518;2023-04-21T06:50:32;98.32;;;54.10;;
45806;SDS011;31507;51.494;7.518;2023-04-21T06:52:57;86.82;;;51.30;;
45806;SDS011;31507;51.494;7.518;2023-04-21T06:55:23;102.47;;;52.92;;
45806;SDS011;31507;51.494;7.518;2023-04-21T06:57:48;74.50;;;47.22;;
45806;SDS011;31507;51.494;7.518;2023-04-21T07:00:14;68.03;;;44.70;;
45806;SDS011;31507;51.494;7.518;2023-04-21T07:02:40;69.78;;;46.33;;
45806;SDS011;31507;51.494;7.518;2023-04-21T07:05:08;71.60;;;45.30;;
45806;SDS011;31507;51.494;7.518;2023-04-21T07:07:33;60.28;;;39.67;;
45806;SDS011;31507;51.494;7.518;2023-04-21T07:09:59;60.60;;;40.65;;
45806;SDS011;31507;51.494;7.518;2023-04-21T07:12:25;61.65;;;40.78;;
45806;SDS011;31507;51.494;7.518;2023-04-21T07:14:50;60.97;;;40.55;;
45806;SDS011;31507;51.494;7.518;2023-04-21T07:17:16;60.50;;;40.38;;
45806;SDS011;31507;51.494;7.518;2023-04-21T07:19:41;59.45;;;37.67;;
45806;SDS011;31507;51.494;7.518;2023-04-21T07:22:07;54.88;;;37.92;;
45806;SDS011;31507;51.494;7.518;2023-04-21T07:24:33;56.70;;;39.47;;
45806;SDS011;31507;51.494;7.518;2023-04-21T07:26:59;54.00;;;38.40;;
45806;SDS011;31507;51.494;7.518;2023-04-21T07:29:26;54.30;;;36.63;;
45806;SDS011;31507;51.494;7.518;2023-04-21T07:31:52;54.22;;;37.60;;
45806;SDS011;31507;51.494;7.518;2023-04-21T07:34:19;53.97;;;37.03;;
45806;SDS011;31507;51.494;7.518;2023-04-21T07:36:44;54.70;;;37.85;;
45806;SDS011;31507;51.494;7.518;2023-04-21T07:39:10;53.90;;;36.80;;
45806;SDS011;31507;51.494;7.518;2023-04-21T07:41:36;53.75;;;36.20;;
45806;SDS011;31507;51.494;7.518;2023-04-21T07:44:01;55.90;;;37.85;;
45806;SDS011;31507;51.494;7.518;2023-04-21T07:46:27;61.60;;;38.47;;
45806;SDS011;31507;51.494;7.518;2023-04-21T07:48:54;54.80;;;37.17;;
45806;SDS011;31507;51.494;7.518;2023-04-21T07:51:21;57.10;;;39.03;;
45806;SDS011;31507;51.494;7.518;2023-04-21T07:53:47;57.47;;;39.13;;
45806;SDS011;31507;51.494;7.518;2023-04-21T07:56:13;57.03;;;38.60;;
45806;SDS011;31507;51.494;7.518;2023-04-21T07:58:38;57.42;;;37.72;;
45806;SDS011;31507;51.494;7.518;2023-04-21T08:01:04;55.30;;;36.95;;
45806;SDS011;31507;51.494;7.518;2023-04-21T08:03:32;57.72;;;37.30;;
45806;SDS011;31507;51.494;7.518;2023-04-21T08:05:57;52.97;;;36.05;;
45806;SDS011;31507;51.494;7.518;2023-04-21T08:08:23;55.90;;;35.33;;
45806;SDS011;31507;51.494;7.518;2023-04-21T08:10:48;48.85;;;33.63;;
45806;SDS011;31507;51.494;7.518;2023-04-21T08:13:14;48.55;;;34.25;;
45806;SDS011;31507;51.494;7.518;2023-04-21T08:15:40;50.58;;;36.90;;
45806;SDS011;31507;51.494;7.518;2023-04-21T08:18:06;44.90;;;33.10;;
45806;SDS011;31507;51.494;7.518;2023-04-21T08:20:32;47.83;;;33.40;;
45806;SDS011;31507;51.494;7.518;2023-04-21T08:22:58;51.47;;;34.63;;
45806;SDS011;31507;51.494;7.518;2023-04-21T08:25:24;50.15;;;33.13;;
45806;SDS011;31507;51.494;7.518;2023-04-21T08:27:50;42.97;;;31.83;;
45806;SDS011;31507;51.494;7.518;2023-04-21T08:30:15;43.22;;;31.30;;
45806;SDS011;31507;51.494;7.518;2023-04-21T08:32:41;45.92;;;31.25;;
45806;SDS011;31507;51.494;7.518;2023-04-21T08:35:08;46.60;;;32.25;;
45806;SDS011;31507;51.494;7.518;2023-04-21T08:37:37;38.28;;;29.55;;
45806;SDS011;31507;51.494;7.518;2023-04-21T08:40:04;38.08;;;27.92;;
45806;SDS011;31507;51.494;7.518;2023-04-21T08:42:30;39.58;;;28.77;;
45806;SDS011;31507;51.494;7.518;2023-04-21T08:44:57;38.95;;;28.25;;
45806;SDS011;31507;51.494;7.518;2023-04-21T08:47:23;41.25;;;28.65;;
45806;SDS011;31507;51.494;7.518;2023-04-21T08:49:50;41.08;;;31.38;;
45806;SDS011;31507;51.494;7.518;2023-04-21T08:52:16;43.13;;;31.38;;
45806;SDS011;31507;51.494;7.518;2023-04-21T08:54:42;41.53;;;29.35;;
45806;SDS011;31507;51.494;7.518;2023-04-21T08:57:11;40.65;;;28.50;;
45806;SDS011;31507;51.494;7.518;2023-04-21T08:59:37;35.50;;;26.73;;
45806;SDS011;31507;51.494;7.518;2023-04-21T09:04:31;38.40;;;28.92;;
45806;SDS011;31507;51.494;7.518;2023-04-21T09:06:57;38.05;;;28.75;;
45806;SDS011;31507;51.494;7.518;2023-04-21T09:09:22;43.00;;;29.08;;
45806;SDS011;31507;51.494;7.518;2023-04-21T09:11:57;37.70;;;27.65;;
45806;SDS011;31507;51.494;7.518;2023-04-21T09:14:32;43.05;;;29.40;;
45806;SDS011;31507;51.494;7.518;2023-04-21T09:16:59;37.53;;;26.77;;
45806;SDS011;31507;51.494;7.518;2023-04-21T09:19:26;38.25;;;26.17;;
45806;SDS011;31507;51.494;7.518;2023-04-21T09:21:52;37.90;;;26.17;;
45806;SDS011;31507;51.494;7.518;2023-04-21T09:24:18;38.50;;;26.48;;
45806;SDS011;31507;51.494;7.518;2023-04-21T09:26:48;34.72;;;25.02;;
45806;SDS011;31507;51.494;7.518;2023-04-21T09:29:15;32.65;;;25.15;;
45806;SDS011;31507;51.494;7.518;2023-04-21T09:31:42;34.42;;;24.95;;
45806;SDS011;31507;51.494;7.518;2023-04-21T09:36:44;41.20;;;26.25;;
45806;SDS011;31507;51.494;7.518;2023-04-21T09:39:10;36.88;;;26.38;;
45806;SDS011;31507;51.494;7.518;2023-04-21T09:41:36;36.17;;;25.60;;
45806;SDS011;31507;51.494;7.518;2023-04-21T09:44:02;38.15;;;27.27;;
45806;SDS011;31507;51.494;7.518;2023-04-21T09:46:29;35.13;;;25.13;;
45806;SDS011;31507;51.494;7.518;2023-04-21T09:48:58;32.28;;;24.88;;
45806;SDS011;31507;51.494;7.518;2023-04-21T09:51:25;30.85;;;22.65;;
45806;SDS011;31507;51.494;7.518;2023-04-21T09:53:52;34.30;;;25.13;;
45806;SDS011;31507;51.494;7.518;2023-04-21T09:56:23;32.95;;;24.98;;
45806;SDS011;31507;51.494;7.518;2023-04-21T09:58:52;40.78;;;26.75;;
45806;SDS011;31507;51.494;7.518;2023-04-21T10:01:25;32.17;;;24.15;;
45806;SDS011;31507;51.494;7.518;2023-04-21T10:03:53;33.42;;;25.17;;
45806;SDS011;31507;51.494;7.518;2023-04-21T10:06:19;34.88;;;25.73;;
45806;SDS011;31507;51.494;7.518;2023-04-21T10:08:45;37.17;;;25.38;;
45806;SDS011;31507;51.494;7.518;2023-04-21T10:11:13;43.45;;;25.80;;
45806;SDS011;31507;51.494;7.518;2023-04-21T10:13:39;31.88;;;22.52;;
45806;SDS011;31507;51.494;7.518;2023-04-21T10:16:09;32.22;;;22.65;;
45806;SDS011;31507;51.494;7.518;2023-04-21T10:18:35;29.05;;;22.63;;
45806;SDS011;31507;51.494;7.518;2023-04-21T10:21:06;28.98;;;21.60;;
45806;SDS011;31507;51.494;7.518;2023-04-21T10:28:43;29.58;;;21.42;;
45806;SDS011;31507;51.494;7.518;2023-04-21T10:31:16;29.40;;;20.98;;
45806;SDS011;31507;51.494;7.518;2023-04-21T10:36:31;25.10;;;20.02;;
45806;SDS011;31507;51.494;7.518;2023-04-21T10:39:02;22.13;;;18.83;;
45806;SDS011;31507;51.494;7.518;2023-04-21T10:41:31;25.20;;;18.77;;
45806;SDS011;31507;51.494;7.518;2023-04-21T10:44:13;25.92;;;19.90;;
45806;SDS011;31507;51.494;7.518;2023-04-21T10:46:44;25.77;;;18.45;;
45806;SDS011;31507;51.494;7.518;2023-04-21T10:54:26;22.88;;;18.42;;
45806;SDS011;31507;51.494;7.518;2023-04-21T10:57:29;25.05;;;18.80;;
45806;SDS011;31507;51.494;7.518;2023-04-21T10:59:56;26.27;;;20.40;;
45806;SDS011;31507;51.494;7.518;2023-04-21T11:02:22;25.58;;;19.85;;
45806;SDS011;31507;51.494;7.518;2023-04-21T11:04:51;26.65;;;20.10;;
45806;SDS011;31507;51.494;7.518;2023-04-21T11:07:21;32.40;;;21.30;;
45806;SDS011;31507;51.494;7.518;2023-04-21T11:09:55;30.77;;;20.98;;
45806;SDS011;31507;51.494;7.518;2023-04-21T11:12:31;26.58;;;20.05;;
45806;SDS011;31507;51.494;7.518;2023-04-21T11:14:58;30.77;;;21.05;;
45806;SDS011;31507;51.494;7.518;2023-04-21T11:17:27;28.98;;;20.20;;
45806;SDS011;31507;51.494;7.518;2023-04-21T11:19:53;27.77;;;21.48;;
45806;SDS011;31507;51.494;7.518;2023-04-21T11:22:22;27.77;;;19.92;;
45806;SDS011;31507;51.494;7.518;2023-04-21T11:24:50;25.00;;;19.20;;
45806;SDS011;31507;51.494;7.518;2023-04-21T11:27:20;24.13;;;19.85;;
45806;SDS011;31507;51.494;7.518;2023-04-21T11:29:48;28.00;;;18.52;;
45806;SDS011;31507;51.494;7.518;2023-04-21T11:32:15;28.73;;;19.73;;
45806;SDS011;31507;51.494;7.518;2023-04-21T11:34:41;26.30;;;18.77;;
45806;SDS011;31507;51.494;7.518;2023-04-21T11:37:08;25.73;;;19.08;;
45806;SDS011;31507;51.494;7.518;2023-04-21T11:39:34;26.10;;;19.48;;
45806;SDS011;31507;51.494;7.518;2023-04-21T11:42:00;24.75;;;19.20;;
45806;SDS011;31507;51.494;7.518;2023-04-21T11:46:57;25.80;;;19.83;;
45806;SDS011;31507;51.494;7.518;2023-04-21T11:49:26;27.92;;;19.83;;
45806;SDS011;31507;51.494;7.518;2023-04-21T11:51:53;28.33;;;19.83;;
45806;SDS011;31507;51.494;7.518;2023-04-21T11:54:20;26.75;;;18.40;;
45806;SDS011;31507;51.494;7.518;2023-04-21T11:56:48;25.08;;;18.27;;
45806;SDS011;31507;51.494;7.518;2023-04-21T11:59:15;23.38;;;18.80;;
45806;SDS011;31507;51.494;7.518;2023-04-21T12:01:44;21.48;;;19.17;;
45806;SDS011;31507;51.494;7.518;2023-04-21T12:04:14;22.88;;;18.45;;
45806;SDS011;31507;51.494;7.518;2023-04-21T12:06:40;22.95;;;18.63;;
45806;SDS011;31507;51.494;7.518;2023-04-21T12:09:07;21.58;;;17.23;;
45806;SDS011;31507;51.494;7.518;2023-04-21T12:11:33;21.83;;;17.88;;
45806;SDS011;31507;51.494;7.518;2023-04-21T12:14:00;21.77;;;17.27;;
45806;SDS011;31507;51.494;7.518;2023-04-21T12:16:26;25.20;;;18.48;;
45806;SDS011;31507;51.494;7.518;2023-04-21T12:18:55;21.02;;;18.00;;
45806;SDS011;31507;51.494;7.518;2023-04-21T12:21:25;21.08;;;18.25;;
45806;SDS011;31507;51.494;7.518;2023-04-21T12:23:52;25.23;;;17.95;;
45806;SDS011;31507;51.494;7.518;2023-04-21T12:26:17;20.17;;;17.90;;
45806;SDS011;31507;51.494;7.518;2023-04-21T12:28:43;24.33;;;19.00;;
45806;SDS011;31507;51.494;7.518;2023-04-21T12:31:09;23.77;;;18.75;;
45806;SDS011;31507;51.494;7.518;2023-04-21T12:33:35;24.13;;;18.70;;
45806;SDS011;31507;51.494;7.518;2023-04-21T12:36:00;20.02;;;17.88;;
45806;SDS011;31507;51.494;7.518;2023-04-21T12:38:34;26.33;;;18.02;;
45806;SDS011;31507;51.494;7.518;2023-04-21T12:40:59;21.05;;;17.70;;
45806;SDS011;31507;51.494;7.518;2023-04-21T12:43:25;20.58;;;17.50;;
45806;SDS011;31507;51.494;7.518;2023-04-21T12:45:51;21.27;;;17.45;;
45806;SDS011;31507;51.494;7.518;2023-04-21T12:48:17;23.10;;;18.02;;
45806;SDS011;31507;51.494;7.518;2023-04-21T12:50:44;25.35;;;20.02;;
45806;SDS011;31507;51.494;7.518;2023-04-21T12:53:11;20.45;;;17.27;;
45806;SDS011;31507;51.494;7.518;2023-04-21T12:55:37;22.27;;;17.48;;
45806;SDS011;31507;51.494;7.518;2023-04-21T12:58:03;20.17;;;16.85;;
45806;SDS011;31507;51.494;7.518;2023-04-21T13:00:28;21.25;;;15.93;;
45806;SDS011;31507;51.494;7.518;2023-04-21T13:02:54;22.60;;;16.20;;
45806;SDS011;31507;51.494;7.518;2023-04-21T13:05:19;22.90;;;15.07;;
45806;SDS011;31507;51.494;7.518;2023-04-21T13:07:45;20.23;;;16.02;;
45806;SDS011;31507;51.494;7.518;2023-04-21T13:10:11;79.50;;;33.05;;
45806;SDS011;31507;51.494;7.518;2023-04-21T13:12:36;18.83;;;15.43;;
45806;SDS011;31507;51.494;7.518;2023-04-21T13:15:02;20.88;;;15.15;;
45806;SDS011;31507;51.494;7.518;2023-04-21T13:17:28;16.50;;;14.23;;
45806;SDS011;31507;51.494;7.518;2023-04-21T13:19:54;19.50;;;14.38;;
45806;SDS011;31507;51.494;7.518;2023-04-21T13:22:20;17.58;;;14.85;;
45806;SDS011;31507;51.494;7.518;2023-04-21T13:24:46;20.65;;;13.88;;
45806;SDS011;31507;51.494;7.518;2023-04-21T13:27:12;15.20;;;12.00;;
45806;SDS011;31507;51.494;7.518;2023-04-21T13:29:38;12.57;;;10.85;;
45806;SDS011;31507;51.494;7.518;2023-04-21T13:32:04;11.55;;;10.43;;
45806;SDS011;31507;51.494;7.518;2023-04-21T13:34:31;16.33;;;11.23;;
45806;SDS011;31507;51.494;7.518;2023-04-21T13:36:58;10.95;;;9.80;;
45806;SDS011;31507;51.494;7.518;2023-04-21T13:39:25;15.48;;;10.50;;
45806;SDS011;31507;51.494;7.518;2023-04-21T13:41:51;11.23;;;9.48;;
45806;SDS011;31507;51.494;7.518;2023-04-21T13:44:17;14.40;;;11.07;;
45806;SDS011;31507;51.494;7.518;2023-04-21T13:46:43;13.63;;;10.43;;
45806;SDS011;31507;51.494;7.518;2023-04-21T13:49:09;14.13;;;10.40;;
45806;SDS011;31507;51.494;7.518;2023-04-21T13:51:35;11.27;;;9.98;;
45806;SDS011;31507;51.494;7.518;2023-04-21T13:54:01;14.05;;;11.10;;
45806;SDS011;31507;51.494;7.518;2023-04-21T13:56:26;17.00;;;12.52;;
45806;SDS011;31507;51.494;7.518;2023-04-21T13:58:52;18.95;;;10.48;;
45806;SDS011;31507;51.494;7.518;2023-04-21T14:01:19;11.63;;;10.10;;
45806;SDS011;31507;51.494;7.518;2023-04-21T14:03:45;16.10;;;10.02;;
45806;SDS011;31507;51.494;7.518;2023-04-21T14:06:10;12.55;;;9.77;;
45806;SDS011;31507;51.494;7.518;2023-04-21T14:08:36;14.77;;;10.40;;
45806;SDS011;31507;51.494;7.518;2023-04-21T14:11:02;12.60;;;10.48;;
45806;SDS011;31507;51.494;7.518;2023-04-21T14:13:28;15.77;;;10.25;;
45806;SDS011;31507;51.494;7.518;2023-04-21T14:15:55;12.85;;;9.68;;
45806;SDS011;31507;51.494;7.518;2023-04-21T14:18:21;13.70;;;9.65;;
45806;SDS011;31507;51.494;7.518;2023-04-21T14:20:47;14.63;;;9.43;;
45806;SDS011;31507;51.494;7.518;2023-04-21T14:23:13;14.30;;;9.73;;
45806;SDS011;31507;51.494;7.518;2023-04-21T14:25:39;13.98;;;11.73;;
45806;SDS011;31507;51.494;7.518;2023-04-21T14:28:05;14.27;;;9.15;;
45806;SDS011;31507;51.494;7.518;2023-04-21T14:30:32;11.32;;;9.27;;
45806;SDS011;31507;51.494;7.518;2023-04-21T14:33:00;10.90;;;9.48;;